Time;durP1;ratioP1;P1;durP2;ratioP2;P2;SDS_P1;SDS_P2;PMS_P1;PMS_P2;Temp;Humidity;BMP_temperature;BMP_pressure;BME280_temperature;BME280_humidity;BME280_pressure;Samples;Min_cycle;Max_cycle;Signal;HPM_P1;HPM_P2
2021/04/14 00:00:39;;;;;;;21.00;11.30;;;;;;;0.75;65.92;99192.75;114497;1206;103159;-71
2021/04/14 00:03:22;;;;;;;22.10;11.40;;;;;;;0.77;66.48;99197.97;114508;1206;103545;-72
2021/04/14 00:05:52;;;;;;;27.80;15.00;;;;;;;0.76;66.58;99197.09;114486;1206;103228;-71
2021/04/14 00:08:22;;;;;;;22.40;12.40;;;;;;;0.78;66.57;99195.28;114496;1206;103059;-73
2021/04/14 00:10:52;;;;;;;21.90;12.50;;;;;;;0.79;66.08;99191.76;114534;1206;103120;-71
2021/04/14 00:13:25;;;;;;;20.05;10.30;;;;;;;0.81;66.55;99189.11;114500;1206;103169;-70
2021/04/14 00:15:58;;;;;;;;;;;;;;;0.81;66.65;99183.88;114563;1214;103574;-71
2021/04/14 00:18:27;;;;;;;20.10;10.30;;;;;;;0.79;66.12;99181.28;114521;1206;103159;-72
2021/04/14 00:20:55;;;;;;;19.40;9.75;;;;;;;0.82;66.17;99175.08;114490;1206;103057;-72
2021/04/14 00:23:25;;;;;;;18.00;8.80;;;;;;;0.83;66.74;99177.67;114502;1206;103101;-71
2021/04/14 00:25:52;;;;;;;17.15;8.60;;;;;;;0.86;66.36;99176.70;114512;1206;103159;-71
2021/04/14 00:28:25;;;;;;;18.60;9.80;;;;;;;0.88;66.76;99164.42;114526;1206;103162;-71
2021/04/14 00:30:55;;;;;;;17.30;8.55;;;;;;;0.89;66.58;99168.75;114511;1206;103232;-71
2021/04/14 00:33:22;;;;;;;15.90;7.50;;;;;;;0.92;66.48;99155.56;114470;1206;103232;-70
2021/04/14 00:35:52;;;;;;;17.80;9.05;;;;;;;0.93;66.62;99152.04;114514;1206;103158;-72
2021/04/14 00:38:22;;;;;;;15.60;7.70;;;;;;;0.94;66.90;99152.91;114506;1206;103049;-72
2021/04/14 00:41:03;;;;;;;16.55;7.95;;;;;;;0.94;66.62;99153.75;114567;1206;103117;-73
2021/04/14 00:43:36;;;;;;;16.35;7.90;;;;;;;0.96;67.02;99154.56;114499;1206;103124;-73
2021/04/14 00:46:06;;;;;;;16.45;8.50;;;;;;;0.97;66.80;99151.04;114524;1206;103091;-72
2021/04/14 00:48:36;;;;;;;16.10;7.80;;;;;;;0.99;66.73;99149.23;114546;1206;103053;-72
2021/04/14 00:51:07;;;;;;;14.80;7.80;;;;;;;0.99;66.69;99143.15;114490;1206;103194;-71
2021/04/14 00:53:34;;;;;;;15.70;6.90;;;;;;;1.01;66.49;99143.95;114545;1206;103143;-71
2021/04/14 00:56:02;;;;;;;15.70;8.17;;;;;;;1.01;66.76;99147.42;114425;1206;103194;-74
2021/04/14 00:58:29;;;;;;;18.47;9.40;;;;;;;1.01;66.73;99147.42;114922;1206;103056;-73
2021/04/14 01:00:59;;;;;;;16.20;7.80;;;;;;;1.04;66.86;99143.83;114418;1206;103088;-73
2021/04/14 01:03:34;;;;;;;14.30;7.50;;;;;;;1.04;66.66;99142.08;114476;1204;103088;-73
2021/04/14 01:06:18;;;;;;;16.20;7.70;;;;;;;1.04;67.18;99138.59;114531;1206;103076;-73
2021/04/14 01:08:47;;;;;;;17.45;7.85;;;;;;;1.04;66.85;99135.97;114535;1206;103078;-73
2021/04/14 01:11:16;;;;;;;16.20;7.90;;;;;;;1.04;66.58;99133.34;114503;1206;103082;-73
2021/04/14 01:13:46;;;;;;;17.90;8.40;;;;;;;1.06;66.57;99128.92;114426;1204;103057;-71
2021/04/14 01:16:13;;;;;;;14.05;7.80;;;;;;;1.06;67.02;99136.78;114496;1206;103185;-73
2021/04/14 01:18:43;;;;;;;15.60;8.15;;;;;;;1.07;66.94;99129.80;114524;1205;103134;-72
2021/04/14 01:21:27;;;;;;;17.20;8.77;;;;;;;1.08;66.64;99121.03;114522;1205;103313;-72
2021/04/14 01:23:57;;;;;;;16.20;8.10;;;;;;;1.06;67.24;99121.06;114497;1206;103082;-72
2021/04/14 01:26:26;;;;;;;18.15;9.10;;;;;;;1.09;67.20;99113.10;114530;1206;103573;-72
2021/04/14 01:28:56;;;;;;;17.50;7.90;;;;;;;1.11;66.60;99121.77;114488;1206;103156;-73
2021/04/14 01:31:32;;;;;;;17.90;8.20;;;;;;;1.10;67.17;99114.81;114493;1206;103056;-71
2021/04/14 01:34:14;;;;;;;16.40;7.95;;;;;;;1.11;66.78;99113.06;114528;1206;103265;-73
2021/04/14 01:36:43;;;;;;;17.20;8.70;;;;;;;1.11;67.17;99108.67;114476;1206;103078;-72
2021/04/14 01:39:14;;;;;;;15.60;7.55;;;;;;;1.11;66.76;99116.53;114472;1206;103175;-74
2021/04/14 01:41:44;;;;;;;13.75;7.30;;;;;;;1.09;66.93;99118.34;114497;1206;103081;-73
2021/04/14 01:44:11;;;;;;;14.25;7.35;;;;;;;1.10;67.14;99112.20;114487;1206;103089;-72
2021/04/14 01:46:41;;;;;;;14.10;6.70;;;;;;;1.11;66.76;99110.45;114486;1206;103533;-72
2021/04/14 01:49:11;;;;;;;13.35;6.95;;;;;;;1.09;67.24;99110.48;114430;1206;103114;-71
2021/04/14 01:51:38;;;;;;;16.70;7.85;;;;;;;1.12;66.86;99109.55;114501;1206;103089;-72
2021/04/14 01:54:09;;;;;;;15.90;7.53;;;;;;;1.14;66.77;99102.48;114492;1205;103053;-71
2021/04/14 01:56:36;;;;;;;14.60;7.10;;;;;;;1.15;66.99;99106.82;114514;1206;103083;-70
2021/04/14 01:59:06;;;;;;;14.20;6.63;;;;;;;1.15;67.29;99102.42;114484;1206;103136;-71
2021/04/14 02:01:35;;;;;;;14.35;6.85;;;;;;;1.16;67.23;99103.30;114463;1206;103088;-71
2021/04/14 02:04:02;;;;;;;13.00;6.75;;;;;;;1.17;67.31;99103.23;114518;1206;103102;-72
2021/04/14 02:06:32;;;;;;;14.20;6.60;;;;;;;1.21;67.22;99104.00;114515;1205;103508;-70
2021/04/14 02:08:59;;;;;;;11.43;5.48;;;;;;;1.23;66.95;99107.39;114541;1206;103194;-72
2021/04/14 02:11:28;;;;;;;12.55;7.00;;;;;;;1.20;66.98;99107.53;114535;1206;103188;-73
2021/04/14 02:13:55;;;;;;;10.35;5.60;;;;;;;1.19;67.16;99106.66;114459;1206;103082;-72
2021/04/14 02:16:24;;;;;;;15.30;6.55;;;;;;;1.21;66.96;99104.00;114461;1206;103096;-72
2021/04/14 02:18:53;;;;;;;11.60;5.70;;;;;;;1.20;66.92;99107.53;114476;1206;103510;-73
2021/04/14 02:21:22;;;;;;;11.30;5.90;;;;;;;1.18;67.29;99104.10;114507;1206;103172;-73
2021/04/14 02:23:51;;;;;;;12.30;6.17;;;;;;;1.18;66.96;99106.72;114495;1206;103127;-72
2021/04/14 02:26:23;;;;;;;11.60;5.90;;;;;;;1.18;67.25;99111.96;114486;1206;103084;-71
2021/04/14 02:28:54;;;;;;;12.90;5.73;;;;;;;1.14;67.20;99097.25;114512;1206;103069;-72
2021/04/14 02:31:32;;;;;;;11.45;5.60;;;;;;;1.15;66.93;99105.05;114469;1206;103085;-71
2021/04/14 02:34:08;;;;;;;11.60;5.90;;;;;;;1.18;67.19;99104.10;114519;1206;103162;-71
2021/04/14 02:36:35;;;;;;;10.60;5.40;;;;;;;1.18;67.15;99112.80;114516;1205;103200;-71
2021/04/14 02:39:09;;;;;;;12.90;5.60;;;;;;;1.14;67.26;99113.81;114488;1206;103089;-71
2021/04/14 02:41:39;;;;;;;8.80;4.70;;;;;;;1.12;66.80;99106.92;114517;1206;103207;-72
2021/04/14 02:44:07;;;;;;;9.20;4.80;;;;;;;1.08;67.31;99106.15;114496;1206;103127;-72
2021/04/14 02:46:34;;;;;;;9.60;4.65;;;;;;;1.07;67.41;99103.59;114464;1206;103145;-71
2021/04/14 02:49:04;;;;;;;9.90;5.00;;;;;;;1.07;67.36;99107.05;114497;1206;103198;-71
2021/04/14 02:51:33;;;;;;;9.85;4.60;;;;;;;1.07;67.32;99107.05;114486;1206;103155;-73
2021/04/14 02:54:00;;;;;;;11.05;4.75;;;;;;;1.08;67.34;99106.15;114533;1206;103095;-74
2021/04/14 02:56:27;;;;;;;10.00;5.25;;;;;;;1.07;67.57;99096.58;114535;1206;103091;-72
2021/04/14 02:58:54;;;;;;;8.35;4.60;;;;;;;1.06;66.93;99101.88;114538;1206;103229;-73
2021/04/14 03:01:25;;;;;;;11.10;5.13;;;;;;;1.06;67.08;99101.88;114496;1206;103085;-74
2021/04/14 03:03:52;;;;;;;9.20;4.90;;;;;;;1.06;67.28;99096.64;114507;1206;103504;-74
2021/04/14 03:06:19;;;;;;;8.95;4.60;;;;;;;1.06;67.78;99100.10;114514;1206;103191;-72
2021/04/14 03:08:46;;;;;;;9.80;4.40;;;;;;;1.06;67.43;99107.96;114492;1206;103050;-73
2021/04/14 03:11:13;;;;;;;9.25;4.70;;;;;;;1.03;67.10;99101.08;114518;1204;103149;-72
2021/04/14 03:13:43;;;;;;;9.60;4.90;;;;;;;1.04;66.97;99104.53;114496;1206;103472;-72
2021/04/14 03:16:10;;;;;;;10.15;4.35;;;;;;;1.04;67.56;99107.16;114487;1206;103996;-72
2021/04/14 03:18:36;;;;;;;10.03;4.37;;;;;;;1.04;67.09;99113.27;114524;1206;103170;-74
2021/04/14 03:21:06;;;;;;;9.50;4.10;;;;;;;1.00;67.27;99116.89;114524;1205;103159;-73
2021/04/14 03:23:35;;;;;;;8.60;3.90;;;;;;;0.98;67.17;99108.22;114526;1206;103053;-73
2021/04/14 03:26:05;;;;;;;8.20;3.70;;;;;;;0.99;67.54;99115.17;114538;1206;103169;-73
2021/04/14 03:28:32;;;;;;;8.10;3.75;;;;;;;0.96;67.37;99109.20;114542;1206;103082;-74
2021/04/14 03:31:01;;;;;;;8.40;4.00;;;;;;;0.96;67.42;99110.03;114532;1205;103104;-73
2021/04/14 03:33:28;;;;;;;5.85;3.05;;;;;;;0.97;67.06;99105.67;114483;1206;103657;-72
2021/04/14 03:35:55;;;;;;;5.97;3.13;;;;;;;0.96;67.58;99107.42;114541;1205;103051;-75
2021/04/14 03:38:24;;;;;;;6.10;3.20;;;;;;;0.94;67.56;99108.39;114567;1206;103641;-75
2021/04/14 03:40:51;;;;;;;8.53;3.20;;;;;;;0.98;67.40;99112.63;114506;1206;103149;-74
2021/04/14 03:43:18;;;;;;;4.67;2.33;;;;;;;0.97;67.26;99111.75;114516;1206;103063;-73
2021/04/14 03:45:47;;;;;;;5.30;2.30;;;;;;;0.96;67.20;99117.05;114500;1206;103149;-75
2021/04/14 03:48:16;;;;;;;7.50;2.80;;;;;;;0.95;67.31;99117.95;114536;1206;103127;-74
2021/04/14 03:50:43;;;;;;;4.87;2.67;;;;;;;0.94;67.73;99111.01;114511;1205;103053;-75
2021/04/14 03:53:27;;;;;;;4.90;2.40;;;;;;;0.93;67.33;99106.67;114508;1206;103200;-74
2021/04/14 03:56:15;;;;;;;9.35;3.10;;;;;;;0.93;67.65;99117.16;114534;1206;103159;-73
2021/04/14 03:58:54;;;;;;;7.50;3.00;;;;;;;0.94;67.62;99109.23;114511;1206;103153;-72
2021/04/14 04:01:26;;;;;;;7.05;3.15;;;;;;;0.96;67.91;99115.28;114499;1206;103086;-75
2021/04/14 04:03:57;;;;;;;6.20;3.00;;;;;;;0.95;67.87;99118.80;114517;1206;103137;-72
2021/04/14 04:06:26;;;;;;;7.80;3.35;;;;;;;0.97;67.24;99111.75;114451;1206;103484;-73
2021/04/14 04:08:54;;;;;;;9.40;3.80;;;;;;;0.97;67.35;99109.13;114528;1206;103232;-71
2021/04/14 04:11:24;;;;;;;7.70;3.20;;;;;;;0.99;67.31;99115.17;114489;1206;103062;-72
2021/04/14 04:13:55;;;;;;;5.90;3.20;;;;;;;1.01;67.73;99118.61;114518;1206;103155;-72
2021/04/14 04:16:23;;;;;;;10.05;3.50;;;;;;;1.05;67.30;99124.59;114501;1206;103245;-73
2021/04/14 04:18:52;;;;;;;6.75;2.90;;;;;;;1.04;67.78;99130.73;114468;1206;103127;-73
2021/04/14 04:21:22;;;;;;;4.27;2.73;;;;;;;1.03;67.69;99122.03;114524;1206;103127;-72
2021/04/14 04:23:52;;;;;;;4.70;2.90;;;;;;;1.02;67.63;99119.45;114492;1206;103069;-70
2021/04/14 04:26:21;;;;;;;7.85;2.95;;;;;;;1.02;67.47;99124.69;114468;1206;103082;-71
2021/04/14 04:28:48;;;;;;;16.30;4.60;;;;;;;1.01;67.53;99123.84;114469;1206;103153;-70
2021/04/14 04:31:15;;;;;;;18.30;5.85;;;;;;;0.99;67.59;99133.52;114450;1206;103194;-72
2021/04/14 04:33:42;;;;;;;15.20;4.43;;;;;;;1.00;67.79;99126.53;114511;1206;103240;-72
2021/04/14 04:36:10;;;;;;;11.03;4.23;;;;;;;0.99;67.81;99123.03;114456;1206;103065;-71
2021/04/14 04:38:37;;;;;;;10.90;3.80;;;;;;;0.96;67.97;99132.77;114491;1206;103062;-71
2021/04/14 04:41:07;;;;;;;9.00;3.80;;;;;;;0.94;67.28;99119.70;114473;1206;103088;-72
2021/04/14 04:43:34;;;;;;;9.45;3.90;;;;;;;0.92;67.55;99128.53;114466;1206;103048;-72
2021/04/14 04:46:01;;;;;;;10.35;4.55;;;;;;;0.92;67.53;99128.53;114507;1206;103158;-72
2021/04/14 04:48:28;;;;;;;11.65;5.05;;;;;;;0.92;67.76;99126.75;114518;1206;103196;-71
2021/04/14 04:50:55;;;;;;;13.25;6.20;;;;;;;0.92;67.93;99120.67;114362;1206;103054;-73
2021/04/14 04:53:25;;;;;;;11.30;5.33;;;;;;;0.88;67.71;99123.39;114448;1206;103197;-73
2021/04/14 04:55:54;;;;;;;11.20;5.37;;;;;;;0.85;67.25;99118.25;114396;1205;103069;-73
2021/04/14 04:58:21;;;;;;;10.20;5.45;;;;;;;0.83;67.45;99125.30;114463;1206;103084;-73
2021/04/14 05:00:48;;;;;;;12.15;5.50;;;;;;;0.82;67.61;99126.20;114435;1206;103291;-72
2021/04/14 05:03:20;;;;;;;10.75;4.90;;;;;;;0.81;67.93;99134.13;114428;1206;103166;-75
2021/04/14 05:05:47;;;;;;;11.67;5.43;;;;;;;0.78;67.74;99123.74;114467;1206;103226;-74
2021/04/14 05:08:14;;;;;;;13.70;6.50;;;;;;;0.77;67.25;99122.87;114420;1206;103085;-73
2021/04/14 05:10:41;;;;;;;15.80;6.30;;;;;;;0.77;67.24;99120.25;114447;1206;103078;-73
2021/04/14 05:13:11;;;;;;;10.55;5.40;;;;;;;0.77;67.97;99129.88;114442;1206;103177;-74
2021/04/14 05:15:42;;;;;;;11.70;5.40;;;;;;;0.80;67.60;99132.41;114419;1206;103092;-74
2021/04/14 05:18:11;;;;;;;12.40;5.60;;;;;;;0.82;67.83;99125.33;114493;1206;103226;-73
2021/04/14 05:20:41;;;;;;;11.70;5.10;;;;;;;0.85;68.01;99130.47;114479;1206;103059;-73
2021/04/14 05:23:11;;;;;;;10.90;5.25;;;;;;;0.86;68.17;99132.19;114436;1206;103184;-75
2021/04/14 05:25:44;;;;;;;9.95;4.50;;;;;;;0.87;68.10;99129.53;114404;1206;103060;-74
2021/04/14 05:28:17;;;;;;;8.20;4.00;;;;;;;0.89;67.60;99129.47;114493;1206;103184;-74
2021/04/14 05:30:46;;;;;;;11.15;4.50;;;;;;;0.89;68.11;99132.96;114443;1206;103085;-75
2021/04/14 05:33:13;;;;;;;8.40;4.50;;;;;;;0.91;68.03;99125.04;114411;1206;103204;-73
2021/04/14 05:35:42;;;;;;;8.70;4.60;;;;;;;0.89;67.77;99125.11;114424;1206;103213;-72
2021/04/14 05:38:10;;;;;;;11.15;4.65;;;;;;;0.91;68.15;99126.81;114416;1206;103558;-73
2021/04/14 05:40:37;;;;;;;8.10;4.00;;;;;;;0.94;68.31;99124.10;114469;1206;103152;-72
2021/04/14 05:43:17;;;;;;;10.25;4.05;;;;;;;0.92;68.16;99124.13;114509;1206;103082;-76
2021/04/14 05:45:45;;;;;;;10.10;4.20;;;;;;;0.94;67.64;99124.10;114444;1206;103059;-74
2021/04/14 05:48:14;;;;;;;10.40;4.20;;;;;;;0.98;67.93;99129.18;114438;1205;103056;-75
2021/04/14 05:50:42;;;;;;;9.90;4.00;;;;;;;0.99;68.24;99127.44;114460;1206;103121;-74
2021/04/14 05:53:09;;;;;;;7.15;3.65;;;;;;;1.01;67.88;99128.24;114468;1205;103120;-74
2021/04/14 05:55:35;;;;;;;11.20;5.25;;;;;;;1.01;68.10;99126.47;114434;1206;103175;-73
2021/04/14 05:58:02;;;;;;;11.00;4.23;;;;;;;1.02;67.82;99127.30;114385;1206;103131;-72
2021/04/14 06:00:30;;;;;;;12.40;4.60;;;;;;;1.01;67.68;99126.47;114036;1206;103082;-73
2021/04/14 06:02:57;;;;;;;22.30;5.40;;;;;;;1.00;68.29;99126.53;114262;1206;103134;-75
2021/04/14 06:05:25;;;;;;;15.97;4.47;;;;;;;1.00;68.14;99124.75;114336;1206;103123;-72
2021/04/14 06:07:53;;;;;;;13.13;3.90;;;;;;;0.99;68.12;99136.13;114456;1206;103309;-73
2021/04/14 06:10:22;;;;;;;8.30;3.80;;;;;;;1.00;68.26;99123.91;114471;1206;103066;-75
2021/04/14 06:12:52;;;;;;;7.07;3.37;;;;;;;1.03;68.12;99121.16;114528;1206;103056;-72
2021/04/14 06:15:27;;;;;;;8.10;3.20;;;;;;;0.99;68.03;99130.05;114428;1206;103161;-73
2021/04/14 06:17:53;;;;;;;9.00;3.45;;;;;;;0.99;68.32;99130.89;114476;1205;103496;-73
2021/04/14 06:20:24;;;;;;;7.65;4.05;;;;;;;0.99;68.31;99136.13;114408;1206;103075;-72
2021/04/14 06:22:52;;;;;;;9.40;4.40;;;;;;;1.01;68.54;99130.86;114410;1206;103156;-73
2021/04/14 06:25:21;;;;;;;12.60;4.47;;;;;;;1.04;67.93;99126.36;114432;1206;103130;-73
2021/04/14 06:30:20;;;;;;;14.25;5.90;;;;;;;1.05;67.92;99127.20;114423;1206;102996;-70
2021/04/14 06:32:49;;;;;;;11.25;4.35;;;;;;;1.07;68.17;99125.39;114334;1204;103229;-71
2021/04/14 06:35:17;;;;;;;9.70;4.00;;;;;;;1.10;68.28;99129.69;114396;1206;103101;-71
2021/04/14 06:37:45;;;;;;;8.60;3.53;;;;;;;1.13;68.08;99124.36;114439;1205;103232;-71
2021/04/14 06:40:30;;;;;;;9.05;3.30;;;;;;;1.16;68.42;99134.73;114413;1205;103155;-74
2021/04/14 06:43:26;;;;;;;7.90;3.45;;;;;;;1.17;68.14;99134.67;114380;1205;100748;-74
2021/04/14 06:46:00;;;;;;;7.25;3.35;;;;;;;1.16;68.14;99137.36;114400;1206;103708;-75
2021/04/14 06:48:57;;;;;;;5.60;3.20;;;;;;;1.16;68.07;99137.36;114405;1206;103274;-78
2021/04/14 06:51:36;;;;;;;5.30;3.20;;;;;;;1.18;68.20;99133.77;114469;1206;103056;-72
2021/04/14 06:54:23;;;;;;;8.30;3.70;;;;;;;1.21;68.32;99140.69;114385;1206;103143;-72
2021/04/14 06:56:59;;;;;;;6.60;3.20;;;;;;;1.23;68.41;99133.59;114499;1206;103156;-74
2021/04/14 06:59:34;;;;;;;5.20;2.80;;;;;;;1.27;68.22;99139.61;114451;1206;103219;-75
2021/04/14 07:02:14;;;;;;;4.40;2.70;;;;;;;1.30;68.32;99142.13;114421;1205;103538;-72
2021/04/14 07:04:48;;;;;;;9.40;3.50;;;;;;;1.32;67.87;99137.70;114439;1206;103096;-73
2021/04/14 07:07:29;;;;;;;6.10;2.70;;;;;;;1.37;68.34;99141.02;114478;1206;103136;-75
2021/04/14 07:10:26;;;;;;;10.90;4.00;;;;;;;1.44;68.67;99144.28;114487;1205;103546;-71
2021/04/14 07:13:01;;;;;;;10.90;4.00;;;;;;;1.45;68.13;99135.52;114421;1206;103514;-75
2021/04/14 07:15:31;;;;;;;7.25;3.50;;;;;;;1.45;68.01;99132.89;114437;1205;103168;-76
2021/04/14 07:18:07;;;;;;;6.40;3.65;;;;;;;1.48;68.04;99143.27;114462;1205;103169;-73
2021/04/14 07:20:43;;;;;;;7.90;3.60;;;;;;;1.48;68.16;99148.52;114432;1206;103158;-71
2021/04/14 07:23:35;;;;;;;11.40;4.10;;;;;;;1.50;68.35;99144.08;114502;1205;103165;-73
2021/04/14 07:26:25;;;;;;;11.60;3.75;;;;;;;1.52;68.42;99157.13;114488;1206;103219;-75
2021/04/14 07:29:14;;;;;;;10.45;4.40;;;;;;;1.51;68.23;99153.66;114400;1206;103133;-74
2021/04/14 07:31:48;;;;;;;11.70;4.90;;;;;;;1.53;68.20;99156.20;114449;1205;103134;-74
2021/04/14 07:34:39;;;;;;;7.00;3.65;;;;;;;1.58;68.26;99159.53;114410;1206;103078;-74
2021/04/14 07:37:51;;;;;;;8.10;3.75;;;;;;;1.57;68.37;99156.07;114468;1206;103048;-73
2021/04/14 07:40:44;;;;;;;6.85;3.30;;;;;;;1.55;68.18;99159.64;114462;1205;103044;-74
2021/04/14 07:43:17;;;;;;;8.60;3.53;;;;;;;1.55;68.24;99163.13;114419;1206;103092;-75
2021/04/14 07:45:51;;;;;;;7.73;3.37;;;;;;;1.53;68.14;99159.70;114497;1206;103078;-76
2021/04/14 07:48:27;;;;;;;7.60;3.50;;;;;;;1.52;68.36;99160.61;114496;1206;103204;-77
2021/04/14 07:51:00;;;;;;;7.30;3.40;;;;;;;1.53;67.96;99158.83;114498;1206;103268;-76
2021/04/14 07:53:34;;;;;;;13.00;5.00;;;;;;;1.51;68.01;99161.52;114361;1206;103140;-75
2021/04/14 07:56:06;;;;;;;8.85;4.10;;;;;;;1.51;68.18;99166.77;114388;1205;103171;-74
2021/04/14 07:58:36;;;;;;;10.70;4.40;;;;;;;1.54;68.23;99161.42;114295;1206;103105;-74
2021/04/14 08:01:16;;;;;;;11.55;4.40;;;;;;;1.59;68.32;99166.49;113709;1206;103552;-73
2021/04/14 08:03:43;;;;;;;10.40;4.30;;;;;;;1.63;68.38;99158.45;114194;1206;103050;-73
2021/04/14 08:06:29;;;;;;;10.50;4.45;;;;;;;1.67;68.54;99158.34;114324;1206;103319;-73
2021/04/14 08:08:56;;;;;;;9.53;3.90;;;;;;;1.64;68.51;99161.95;114280;1206;102980;-74
2021/04/14 08:11:31;;;;;;;9.90;3.70;;;;;;;1.65;68.35;99171.53;114373;1206;103152;-73
2021/04/14 08:14:09;;;;;;;8.95;3.80;;;;;;;1.66;68.34;99165.38;114373;1205;103082;-74
2021/04/14 08:16:43;;;;;;;9.60;4.30;;;;;;;1.70;68.38;99160.87;114398;1206;103057;-74
2021/04/14 08:19:24;;;;;;;10.65;5.10;;;;;;;1.74;68.27;99163.35;114312;1206;103236;-75
2021/04/14 08:21:57;;;;;;;12.85;4.80;;;;;;;1.76;68.34;99158.03;114337;1207;103143;-74
2021/04/14 08:24:39;;;;;;;17.10;5.10;;;;;;;1.74;68.40;99159.86;114011;1205;103114;-78
2021/04/14 08:27:29;;;;;;;11.05;4.30;;;;;;;1.76;68.34;99158.03;114272;1206;103188;-73
2021/04/14 08:30:04;;;;;;;11.45;4.20;;;;;;;1.74;68.23;99157.23;114302;1206;103053;-74
2021/04/14 08:32:36;;;;;;;12.90;4.60;;;;;;;1.70;68.16;99163.49;114266;1206;103514;-74
2021/04/14 08:35:11;;;;;;;12.10;4.80;;;;;;;1.69;68.21;99159.16;114396;1206;103059;-74
2021/04/14 08:37:40;;;;;;;9.43;4.50;;;;;;;1.71;68.38;99155.59;114251;1206;103207;-73
2021/04/14 08:40:23;;;;;;;11.90;4.30;;;;;;;1.74;68.40;99157.23;114367;1206;103184;-74
2021/04/14 08:42:51;;;;;;;14.20;4.80;;;;;;;1.72;68.32;99152.05;114416;1206;103057;-73
2021/04/14 08:45:26;;;;;;;16.15;5.10;;;;;;;1.74;68.38;99150.23;114470;1206;103150;-73
2021/04/14 08:48:17;;;;;;;9.90;4.40;;;;;;;1.77;68.35;99157.13;114488;1205;103159;-74
2021/04/14 08:50:54;;;;;;;12.73;4.50;;;;;;;1.79;68.49;99155.31;114500;1206;103079;-73
2021/04/14 08:53:28;;;;;;;15.15;4.75;;;;;;;1.83;68.41;99156.91;114374;1206;103091;-74
2021/04/14 08:55:55;;;;;;;16.13;5.60;;;;;;;1.81;68.45;99158.73;114297;1206;103160;-74
2021/04/14 08:58:23;;;;;;;11.85;4.10;;;;;;;1.82;68.03;99152.58;114500;1206;103171;-73
2021/04/14 09:00:51;;;;;;;16.90;7.20;;;;;;;1.83;68.48;99153.45;114423;1206;103140;-73
2021/04/14 09:03:21;;;;;;;19.25;6.85;;;;;;;1.80;68.50;99154.40;114430;1205;103089;-73
2021/04/14 09:05:50;;;;;;;14.83;4.97;;;;;;;1.81;68.38;99150.87;114384;1206;103239;-74
2021/04/14 09:08:24;;;;;;;15.25;5.10;;;;;;;1.78;68.28;99149.22;114214;1206;103245;-74
2021/04/14 09:11:00;;;;;;;9.85;4.30;;;;;;;1.76;68.01;99147.55;114412;1206;103265;-73
2021/04/14 09:13:59;;;;;;;8.30;3.90;;;;;;;1.75;68.31;99151.95;114436;1206;102887;-74
2021/04/14 09:16:54;;;;;;;12.35;5.00;;;;;;;1.74;68.59;99150.23;114287;1206;103079;-75
2021/04/14 09:19:30;;;;;;;13.45;5.50;;;;;;;1.73;68.15;99156.39;114349;1206;103159;-74
2021/04/14 09:22:02;;;;;;;12.93;4.60;;;;;;;1.71;68.46;99152.97;114511;1206;103152;-74
2021/04/14 09:24:47;;;;;;;12.30;4.40;;;;;;;1.72;68.31;99149.44;114384;1206;103066;-73
2021/04/14 09:27:36;;;;;;;14.00;5.70;;;;;;;1.78;68.25;99148.35;114357;1206;103165;-74
2021/04/14 09:30:31;;;;;;;11.10;4.30;;;;;;;1.82;68.35;99144.71;114498;1206;103153;-73
2021/04/14 09:33:05;;;;;;;10.30;4.00;;;;;;;1.87;68.25;99148.03;114366;1206;103153;-73
2021/04/14 09:35:32;;;;;;;10.70;4.33;;;;;;;1.92;69.01;99153.10;114353;1207;103230;-73
2021/04/14 09:38:21;;;;;;;11.60;4.10;;;;;;;1.94;68.45;99148.66;114409;1206;103079;-74
2021/04/14 09:40:51;;;;;;;14.53;5.40;;;;;;;2.00;68.65;99150.22;114456;1206;103159;-73
2021/04/14 09:43:34;;;;;;;13.20;5.10;;;;;;;2.04;68.37;99152.66;114394;1206;103225;-75
2021/04/14 09:46:09;;;;;;;14.43;5.13;;;;;;;2.08;68.75;99153.40;114369;1206;103078;-76
2021/04/14 09:48:46;;;;;;;13.85;5.30;;;;;;;2.11;68.27;99150.66;114402;1206;103053;-74
2021/04/14 09:51:31;;;;;;;13.35;4.85;;;;;;;2.15;68.80;99147.02;114385;1206;103178;-73
2021/04/14 09:54:18;;;;;;;8.30;4.80;;;;;;;2.25;68.54;99147.52;114456;1206;103153;-73
2021/04/14 09:56:53;;;;;;;15.30;5.20;;;;;;;2.31;68.74;99149.08;114388;1206;103086;-73
2021/04/14 09:59:41;;;;;;;14.05;5.25;;;;;;;2.36;68.49;99158.48;114283;1206;103086;-74
2021/04/14 10:02:17;;;;;;;11.80;5.00;;;;;;;2.40;68.68;99163.63;114568;1205;103179;-73
2021/04/14 10:04:47;;;;;;;12.65;5.00;;;;;;;2.41;68.59;99158.33;114311;1206;103187;-73
2021/04/14 10:07:35;;;;;;;12.70;5.00;;;;;;;2.42;68.49;99149.55;114409;1205;103099;-74
2021/04/14 10:10:17;;;;;;;13.00;5.15;;;;;;;2.37;68.55;99154.95;114474;1206;103168;-73
2021/04/14 10:12:45;;;;;;;12.70;5.80;;;;;;;2.35;68.27;99158.56;114448;1206;103286;-75
2021/04/14 10:15:13;;;;;;;12.30;4.40;;;;;;;2.33;68.74;99163.84;114360;1205;103035;-74
2021/04/14 10:17:44;;;;;;;20.60;8.20;;;;;;;2.35;68.69;99153.31;114431;1206;103698;-74
2021/04/14 10:20:13;;;;;;;15.95;6.15;;;;;;;2.35;68.60;99146.27;114506;1206;103597;-74
2021/04/14 10:22:48;;;;;;;13.00;5.50;;;;;;;2.37;68.57;99160.20;114494;1205;103158;-76
2021/04/14 10:25:24;;;;;;;13.50;5.70;;;;;;;2.38;68.45;99153.20;114428;1206;103158;-74
2021/04/14 10:28:01;;;;;;;12.95;5.70;;;;;;;2.39;68.47;99141.78;114539;1206;103156;-74
2021/04/14 10:30:33;;;;;;;11.00;4.70;;;;;;;2.38;68.18;99145.32;114470;1206;103187;-73
2021/04/14 10:33:05;;;;;;;11.23;4.30;;;;;;;2.35;68.35;99150.68;114427;1206;103655;-74
2021/04/14 10:35:33;;;;;;;13.70;5.70;;;;;;;2.27;68.53;99134.36;114449;1206;103169;-76
2021/04/14 10:38:02;;;;;;;12.90;5.20;;;;;;;2.24;68.43;99153.72;114475;1206;103082;-74
2021/04/14 10:40:38;;;;;;;14.10;5.00;;;;;;;2.28;68.84;99144.78;114505;1206;103089;-74
2021/04/14 10:43:19;;;;;;;16.80;6.30;;;;;;;2.30;68.39;99152.63;114462;1206;103338;-74
2021/04/14 10:46:13;;;;;;;13.25;5.35;;;;;;;2.28;68.67;99142.16;114426;1206;103036;-74
2021/04/14 10:48:47;;;;;;;18.47;6.73;;;;;;;2.30;68.23;99139.50;114344;1206;103593;-73
2021/04/14 10:51:22;;;;;;;18.25;5.80;;;;;;;2.30;68.49;99150.00;114474;1206;103073;-74
2021/04/14 10:53:58;;;;;;;12.90;4.75;;;;;;;2.34;68.77;99155.06;114522;1206;103078;-74
2021/04/14 10:56:32;;;;;;;15.50;5.30;;;;;;;2.37;68.77;99147.08;114471;1206;103204;-73
2021/04/14 10:59:05;;;;;;;13.40;5.00;;;;;;;2.43;68.49;99150.38;114424;1206;103508;-73
2021/04/14 11:01:39;;;;;;;10.25;4.35;;;;;;;2.41;68.48;99144.33;114501;1206;103554;-74
2021/04/14 11:04:16;;;;;;;13.30;4.75;;;;;;;2.37;68.68;99154.11;114454;1206;103104;-74
2021/04/14 11:06:50;;;;;;;15.30;5.00;;;;;;;2.37;68.91;99141.82;114490;1206;103162;-74
2021/04/14 11:09:21;;;;;;;9.80;4.30;;;;;;;2.38;68.90;99142.70;114497;1206;103204;-74
2021/04/14 11:11:51;;;;;;;10.00;4.45;;;;;;;2.35;68.59;99151.52;114445;1207;103536;-75
2021/04/14 11:14:20;;;;;;;6.00;3.80;;;;;;;2.34;68.59;99148.97;114481;1206;103191;-75
2021/04/14 11:16:50;;;;;;;8.60;3.70;;;;;;;2.36;68.21;99153.23;114498;1206;103194;-75
2021/04/14 11:19:25;;;;;;;10.65;4.20;;;;;;;2.40;68.87;99154.00;114561;1206;103098;-74
2021/04/14 11:22:09;;;;;;;7.27;3.77;;;;;;;2.41;68.68;99141.70;114482;1209;103086;-74
2021/04/14 11:24:48;;;;;;;11.00;4.70;;;;;;;2.46;68.76;99145.86;114446;1206;103079;-74
2021/04/14 11:27:27;;;;;;;16.65;6.50;;;;;;;2.51;68.56;99138.66;114503;1206;103162;-74
2021/04/14 11:30:14;;;;;;;16.20;6.60;;;;;;;2.60;68.99;99144.48;114476;1206;103152;-74
2021/04/14 11:32:53;;;;;;;13.60;4.80;;;;;;;2.65;68.88;99145.16;114404;1206;103233;-73
2021/04/14 11:35:32;;;;;;;12.20;4.80;;;;;;;2.65;68.99;99146.00;114484;1206;103249;-73
2021/04/14 11:37:59;;;;;;;17.30;5.75;;;;;;;2.70;69.02;99144.97;114406;1206;103146;-73
2021/04/14 11:40:46;;;;;;;13.17;5.23;;;;;;;2.69;68.41;99152.02;114125;1206;103249;-76
2021/04/14 11:43:38;;;;;;;12.37;4.67;;;;;;;2.68;68.70;99142.42;114401;1206;103191;-75
2021/04/14 11:46:26;;;;;;;15.75;5.80;;;;;;;2.68;68.93;99148.52;114418;1205;103248;-73
2021/04/14 11:49:01;;;;;;;14.10;5.50;;;;;;;2.75;68.82;99150.91;114471;1206;103184;-74